createdAt,value
2019-04-10T00:00:29.020Z,20.53
2019-04-10T00:02:56.163Z,23.07
2019-04-10T00:05:23.607Z,25.83
2019-04-10T00:07:50.714Z,24.20
2019-04-10T00:10:17.722Z,22.00
2019-04-10T00:12:45.568Z,25.03
2019-04-10T00:15:15.620Z,26.07
2019-04-10T00:17:41.684Z,22.30
2019-04-10T00:20:09.877Z,22.53
2019-04-10T00:22:38.132Z,24.40
2019-04-10T00:25:05.531Z,22.93
2019-04-10T00:27:32.656Z,24.37
2019-04-10T00:30:00.576Z,23.20
2019-04-10T00:32:27.980Z,26.70
2019-04-10T00:34:56.115Z,19.53
2019-04-10T00:37:28.155Z,26.47
2019-04-10T00:39:52.939Z,25.93
2019-04-10T00:42:20.965Z,21.90
2019-04-10T00:44:48.138Z,24.37
2019-04-10T00:47:15.248Z,24.37
2019-04-10T00:49:42.382Z,23.70
2019-04-10T00:52:10.163Z,25.07
2019-04-10T00:54:37.380Z,23.63
2019-04-10T00:57:05.233Z,28.83
2019-04-10T00:59:32.401Z,26.07
2019-04-10T01:02:00.357Z,24.60
2019-04-10T01:04:28.611Z,28.80
2019-04-10T01:06:56.618Z,26.67
2019-04-10T01:09:23.732Z,26.93
2019-04-10T01:11:51.631Z,23.17
2019-04-10T01:14:18.802Z,23.13
2019-04-10T01:16:47.381Z,29.93
2019-04-10T01:19:15.438Z,27.70
2019-04-10T01:21:42.623Z,24.80
2019-04-10T01:24:11.101Z,28.77
2019-04-10T01:26:39.105Z,27.00
2019-04-10T01:29:06.574Z,23.87
2019-04-10T01:31:33.635Z,26.10
2019-04-10T01:34:01.064Z,26.43
2019-04-10T01:36:29.021Z,29.13
2019-04-10T01:38:56.254Z,24.33
2019-04-10T01:41:23.828Z,26.90
2019-04-10T01:43:51.127Z,31.83
2019-04-10T01:46:18.433Z,34.20
2019-04-10T01:48:45.463Z,25.83
2019-04-10T01:51:12.508Z,28.40
2019-04-10T01:53:39.857Z,28.10
2019-04-10T01:56:20.371Z,27.70
2019-04-10T01:58:37.058Z,25.63
2019-04-10T02:01:14.297Z,26.70
2019-04-10T02:03:42.263Z,24.93
2019-04-10T02:06:09.698Z,27.40
2019-04-10T02:08:36.735Z,29.60
2019-04-10T02:11:04.743Z,29.07
2019-04-10T02:13:31.823Z,26.30
2019-04-10T02:15:58.757Z,26.63
2019-04-10T02:18:25.695Z,24.60
2019-04-10T02:20:53.606Z,24.67
2019-04-10T02:23:20.784Z,27.03
2019-04-10T02:25:47.830Z,26.40
2019-04-10T02:28:15.090Z,24.40
2019-04-10T02:30:43.703Z,25.07
2019-04-10T02:33:10.881Z,22.00
2019-04-10T02:35:38.047Z,27.17
2019-04-10T02:38:21.185Z,26.13
2019-04-10T02:40:34.014Z,27.57
2019-04-10T02:43:03.104Z,29.07
2019-04-10T02:45:30.323Z,28.43
2019-04-10T02:47:59.415Z,26.13
2019-04-10T02:50:27.288Z,25.50
2019-04-10T02:52:54.914Z,25.77
2019-04-10T02:55:23.040Z,27.33
2019-04-10T02:57:51.746Z,26.67
2019-04-10T03:00:20.337Z,25.30
2019-04-10T03:02:49.922Z,30.17
2019-04-10T03:05:17.827Z,27.57
2019-04-10T03:07:46.375Z,24.90
2019-04-10T03:10:24.123Z,26.07
2019-04-10T03:12:44.261Z,27.90
2019-04-10T03:15:12.579Z,23.70
2019-04-10T03:17:40.130Z,26.67
2019-04-10T03:20:07.941Z,25.20
2019-04-10T03:22:34.920Z,25.50
2019-04-10T03:25:02.613Z,25.93
2019-04-10T03:27:30.258Z,29.63
2019-04-10T03:29:57.483Z,26.20
2019-04-10T03:32:48.055Z,27.10
2019-04-10T03:35:18.630Z,25.43
2019-04-10T03:37:46.607Z,28.77
2019-04-10T03:40:13.703Z,25.60
2019-04-10T03:42:41.296Z,32.23
2019-04-10T03:45:09.577Z,24.87
2019-04-10T03:47:37.706Z,23.70
2019-04-10T03:50:05.390Z,21.70
2019-04-10T03:52:33.557Z,31.03
2019-04-10T03:55:00.742Z,27.57
2019-04-10T03:57:28.641Z,27.10
2019-04-10T03:59:56.022Z,23.43
2019-04-10T04:02:23.929Z,24.73
2019-04-10T04:04:51.214Z,23.80
2019-04-10T04:07:18.159Z,27.87
2019-04-10T04:09:45.999Z,25.27
2019-04-10T04:12:13.265Z,22.90
2019-04-10T04:14:40.873Z,24.60
2019-04-10T04:17:08.099Z,22.70
2019-04-10T04:19:35.197Z,26.70
2019-04-10T04:22:02.396Z,24.50
2019-04-10T04:24:29.326Z,24.50
2019-04-10T04:26:57.226Z,37.30
2019-04-10T04:29:24.710Z,23.97
2019-04-10T04:31:52.630Z,22.63
2019-04-10T04:34:21.023Z,25.40
2019-04-10T04:36:49.137Z,24.80
2019-04-10T04:39:23.167Z,24.87
2019-04-10T04:41:46.070Z,24.57
2019-04-10T04:44:13.003Z,31.13
2019-04-10T04:46:40.742Z,25.77
2019-04-10T04:49:07.966Z,26.00
2019-04-10T04:51:35.249Z,24.63
2019-04-10T04:54:02.281Z,28.27
2019-04-10T04:56:29.218Z,24.13
2019-04-10T04:58:56.402Z,29.33
2019-04-10T05:01:23.347Z,24.90
2019-04-10T05:03:50.984Z,35.10
2019-04-10T05:06:20.222Z,23.27
2019-04-10T05:08:48.545Z,29.27
2019-04-10T05:11:15.739Z,22.40
2019-04-10T05:13:42.777Z,31.80
2019-04-10T05:16:10.181Z,27.97
2019-04-10T05:18:37.306Z,28.50
2019-04-10T05:21:05.154Z,20.03
2019-04-10T05:23:33.064Z,22.03
2019-04-10T05:26:02.377Z,28.13
2019-04-10T05:28:29.985Z,22.50
2019-04-10T05:30:58.938Z,24.50
2019-04-10T05:33:26.794Z,28.03
2019-04-10T05:35:54.891Z,24.33
2019-04-10T05:38:22.810Z,23.97
2019-04-10T05:40:50.708Z,25.93
2019-04-10T05:43:17.783Z,26.40
2019-04-10T05:45:44.725Z,22.87
2019-04-10T05:48:11.669Z,25.63
2019-04-10T05:50:39.850Z,24.03
2019-04-10T05:53:08.248Z,30.07
2019-04-10T05:55:35.189Z,24.83
2019-04-10T05:58:02.791Z,29.30
2019-04-10T06:00:30.374Z,27.37
2019-04-10T06:02:58.445Z,23.57
2019-04-10T06:05:26.469Z,24.43
2019-04-10T06:07:53.936Z,22.70
2019-04-10T06:10:21.677Z,23.77
2019-04-10T06:12:48.799Z,25.03
2019-04-10T06:15:16.905Z,20.57
2019-04-10T06:17:44.857Z,26.40
2019-04-10T06:20:14.035Z,28.07
2019-04-10T06:22:41.275Z,24.23
2019-04-10T06:25:10.789Z,30.17
2019-04-10T06:27:37.455Z,23.70
2019-04-10T06:30:05.723Z,23.17
2019-04-10T06:32:32.826Z,23.37
2019-04-10T06:34:59.867Z,21.53
2019-04-10T06:37:26.843Z,28.03
2019-04-10T06:40:05.011Z,26.37
2019-04-10T06:42:22.874Z,31.77
2019-04-10T06:44:50.235Z,23.00
2019-04-10T06:47:18.151Z,29.13
2019-04-10T06:49:45.693Z,29.23
2019-04-10T06:52:12.943Z,23.70
2019-04-10T06:54:40.654Z,23.17
2019-04-10T06:57:08.266Z,26.00
2019-04-10T06:59:35.282Z,25.33
2019-04-10T07:02:14.126Z,24.80
2019-04-10T07:04:42.868Z,25.00
2019-04-10T07:07:06.324Z,28.53
2019-04-10T07:09:29.700Z,26.17
2019-04-10T07:12:01.068Z,25.10
2019-04-10T07:14:28.715Z,23.97
2019-04-10T07:17:00.665Z,25.83
2019-04-10T07:19:26.116Z,25.07
2019-04-10T07:21:53.867Z,27.90
2019-04-10T07:24:22.823Z,21.73
2019-04-10T07:26:50.999Z,25.27
2019-04-10T07:29:21.015Z,25.47
2019-04-10T07:31:47.171Z,26.00
2019-04-10T07:34:15.103Z,28.13
2019-04-10T07:36:43.859Z,26.17
2019-04-10T07:39:11.302Z,25.80
2019-04-10T07:41:39.637Z,28.00
2019-04-10T07:44:07.925Z,24.57
2019-04-10T07:46:35.048Z,28.57
2019-04-10T07:49:02.959Z,23.67
2019-04-10T07:51:30.393Z,24.03
2019-04-10T07:53:57.803Z,29.77
2019-04-10T07:56:25.079Z,27.67
2019-04-10T07:58:53.818Z,29.10
2019-04-10T08:01:22.027Z,23.40
2019-04-10T08:03:51.383Z,22.97
2019-04-10T08:06:18.397Z,26.80
2019-04-10T08:08:45.329Z,26.37
2019-04-10T08:11:13.295Z,24.47
2019-04-10T08:13:40.768Z,25.80
2019-04-10T08:16:08.282Z,24.10
2019-04-10T08:18:35.543Z,28.50
2019-04-10T08:21:02.963Z,26.53
2019-04-10T08:23:30.192Z,29.90
2019-04-10T08:25:58.056Z,24.17
2019-04-10T08:28:27.085Z,24.30
2019-04-10T08:30:54.654Z,24.97
2019-04-10T08:33:21.965Z,25.07
2019-04-10T08:35:49.531Z,24.40
2019-04-10T08:38:17.278Z,29.87
2019-04-10T08:40:44.445Z,24.40
2019-04-10T08:43:11.846Z,28.07
2019-04-10T08:45:46.410Z,23.33
2019-04-10T08:48:08.055Z,24.53
2019-04-10T08:50:36.358Z,26.50
2019-04-10T08:53:04.128Z,25.63
2019-04-10T08:55:32.333Z,30.37
2019-04-10T08:58:00.643Z,26.63
2019-04-10T09:00:28.965Z,28.00
2019-04-10T09:02:56.007Z,24.60
2019-04-10T09:05:23.803Z,26.37
2019-04-10T09:07:50.947Z,27.33
2019-04-10T09:10:18.589Z,26.27
2019-04-10T09:12:45.639Z,26.50
2019-04-10T09:15:13.870Z,27.57
2019-04-10T09:17:41.744Z,27.50
2019-04-10T09:20:10.527Z,32.10
2019-04-10T09:23:04.418Z,26.20
2019-04-10T09:25:07.077Z,25.97
2019-04-10T09:27:34.027Z,27.27
2019-04-10T09:30:00.954Z,28.37
2019-04-10T09:32:28.640Z,28.33
2019-04-10T09:34:56.210Z,34.83
2019-04-10T09:37:24.158Z,24.70
2019-04-10T09:39:53.413Z,26.47
2019-04-10T09:42:21.614Z,27.23
2019-04-10T09:44:48.736Z,30.60
2019-04-10T09:47:16.432Z,27.63
2019-04-10T09:49:46.323Z,26.57
2019-04-10T09:52:14.572Z,28.60
2019-04-10T09:54:42.599Z,24.87
2019-04-10T09:57:09.688Z,27.83
2019-04-10T09:59:39.577Z,29.83
2019-04-10T10:02:05.771Z,29.17
2019-04-10T10:04:34.004Z,27.73
2019-04-10T10:07:01.946Z,28.60
2019-04-10T10:09:30.693Z,29.40
2019-04-10T10:11:58.855Z,27.17
2019-04-10T10:14:26.542Z,27.83
2019-04-10T10:16:53.628Z,26.97
2019-04-10T10:19:21.659Z,30.73
2019-04-10T10:21:48.785Z,28.73
2019-04-10T10:24:16.282Z,30.87
2019-04-10T10:26:45.988Z,24.43
2019-04-10T10:29:13.295Z,22.70
2019-04-10T10:31:40.630Z,27.17
2019-04-10T10:34:08.136Z,30.77
2019-04-10T10:36:41.279Z,30.77
2019-04-10T10:39:13.470Z,24.93
2019-04-10T10:41:42.669Z,26.37
2019-04-10T10:44:10.984Z,24.43
2019-04-10T10:46:38.064Z,29.13
2019-04-10T10:49:06.198Z,27.70
2019-04-10T10:51:33.239Z,26.67
2019-04-10T10:54:02.596Z,24.47
2019-04-10T10:56:30.697Z,26.87
2019-04-10T10:58:58.958Z,23.53
2019-04-10T11:01:27.530Z,28.57
2019-04-10T11:03:54.586Z,26.33
2019-04-10T11:06:22.587Z,27.47
2019-04-10T11:08:51.386Z,26.57
2019-04-10T11:11:18.577Z,26.67
2019-04-10T11:13:46.792Z,36.43
2019-04-10T11:16:14.438Z,26.00
2019-04-10T11:18:42.709Z,28.53
2019-04-10T11:21:12.290Z,30.70
2019-04-10T11:23:38.881Z,24.63
2019-04-10T11:26:06.138Z,28.20
2019-04-10T11:28:33.835Z,25.27
2019-04-10T11:31:01.748Z,28.60
2019-04-10T11:33:28.966Z,22.47
2019-04-10T11:35:56.183Z,26.13
2019-04-10T11:38:25.673Z,24.40
2019-04-10T11:40:56.289Z,31.03
2019-04-10T11:43:24.845Z,25.77
2019-04-10T11:45:53.845Z,29.47
2019-04-10T11:48:20.195Z,25.10
2019-04-10T11:50:48.487Z,28.83
2019-04-10T11:53:17.794Z,26.73
2019-04-10T11:55:50.214Z,24.63
2019-04-10T11:58:17.322Z,25.10
2019-04-10T12:00:50.453Z,29.83
2019-04-10T12:05:42.068Z,27.90
2019-04-10T12:08:33.529Z,29.93
2019-04-10T12:13:08.202Z,30.33
2019-04-10T12:15:36.440Z,28.53
2019-04-10T12:18:04.452Z,33.57
2019-04-10T12:20:31.731Z,26.67
2019-04-10T12:22:58.863Z,34.30
2019-04-10T12:25:27.084Z,28.73
2019-04-10T12:27:54.089Z,29.97
2019-04-10T12:30:21.723Z,30.37
2019-04-10T12:32:49.317Z,29.63
2019-04-10T12:35:17.220Z,30.27
2019-04-10T12:37:45.444Z,25.47
2019-04-10T12:40:13.948Z,28.43
2019-04-10T12:42:41.579Z,31.73
2019-04-10T12:45:09.035Z,32.37
2019-04-10T12:47:36.218Z,27.47
2019-04-10T12:50:03.834Z,30.70
2019-04-10T12:52:30.851Z,31.40
2019-04-10T12:54:57.982Z,30.87
2019-04-10T12:57:25.135Z,29.87
2019-04-10T12:59:52.093Z,29.07
2019-04-10T13:02:20.487Z,30.10
2019-04-10T13:04:47.594Z,31.40
2019-04-10T13:07:15.746Z,31.80
2019-04-10T13:09:42.912Z,31.40
2019-04-10T13:12:11.123Z,31.17
2019-04-10T13:14:39.738Z,34.00
2019-04-10T13:17:07.255Z,27.40
2019-04-10T13:19:34.730Z,29.93
2019-04-10T13:22:04.077Z,30.07
2019-04-10T13:24:31.081Z,31.27
2019-04-10T13:26:58.612Z,32.10
2019-04-10T13:29:25.802Z,26.87
2019-04-10T13:31:53.999Z,29.07
2019-04-10T13:34:21.501Z,32.00
2019-04-10T13:36:48.606Z,30.13
2019-04-10T13:39:18.895Z,30.40
2019-04-10T13:41:46.229Z,28.60
2019-04-10T13:44:14.124Z,32.03
2019-04-10T13:46:41.318Z,29.17
2019-04-10T13:49:09.457Z,30.40
2019-04-10T13:51:37.353Z,30.67
2019-04-10T13:54:06.150Z,28.47
2019-04-10T13:56:33.350Z,33.40
2019-04-10T13:59:00.540Z,28.27
2019-04-10T14:01:30.176Z,31.90
2019-04-10T14:03:57.199Z,30.27
2019-04-10T14:06:25.382Z,35.90
2019-04-10T14:09:10.939Z,34.97
2019-04-10T14:11:22.202Z,34.07
2019-04-10T14:13:49.343Z,30.93
2019-04-10T14:16:16.993Z,33.73
2019-04-10T14:18:45.170Z,32.10
2019-04-10T14:21:15.575Z,31.80
2019-04-10T14:23:41.661Z,30.40
2019-04-10T14:26:26.626Z,32.17
2019-04-10T14:28:55.464Z,33.93
2019-04-10T14:31:34.739Z,37.50
2019-04-10T14:34:03.844Z,32.97
2019-04-10T14:36:31.862Z,31.30
2019-04-10T14:39:10.544Z,27.50
2019-04-10T14:41:29.699Z,33.53
2019-04-10T14:43:57.832Z,31.53
2019-04-10T14:46:24.930Z,28.37
2019-04-10T14:48:53.023Z,34.77
2019-04-10T14:51:20.608Z,29.10
2019-04-10T14:53:49.061Z,29.47
2019-04-10T14:56:16.305Z,31.97
2019-04-10T14:58:44.389Z,38.37
2019-04-10T15:01:11.981Z,29.83
2019-04-10T15:03:40.299Z,34.07
2019-04-10T15:06:07.627Z,41.03
2019-04-10T15:08:35.611Z,36.93
2019-04-10T15:11:02.826Z,33.37
2019-04-10T15:13:29.886Z,33.70
2019-04-10T15:15:58.703Z,33.80
2019-04-10T15:18:26.788Z,38.80
2019-04-10T15:20:54.304Z,32.47
2019-04-10T15:23:21.414Z,32.53
2019-04-10T15:25:49.283Z,32.60
2019-04-10T15:28:18.060Z,37.63
2019-04-10T15:30:46.577Z,35.00
2019-04-10T15:33:14.304Z,38.30
2019-04-10T15:35:41.808Z,33.80
2019-04-10T15:38:09.463Z,33.57
2019-04-10T15:40:36.696Z,34.00
2019-04-10T15:43:04.868Z,33.93
2019-04-10T15:45:32.466Z,36.13
2019-04-10T15:48:00.509Z,33.07
2019-04-10T15:50:28.676Z,32.37
2019-04-10T15:52:57.961Z,34.30
2019-04-10T15:55:25.854Z,33.33
2019-04-10T15:57:56.832Z,35.07
2019-04-10T16:00:23.243Z,33.93
2019-04-10T16:02:51.020Z,34.20
2019-04-10T16:05:19.454Z,31.97
2019-04-10T16:07:47.000Z,31.63
2019-04-10T16:10:33.422Z,37.43
2019-04-10T16:13:02.522Z,32.30
2019-04-10T16:15:34.627Z,36.70
2019-04-10T16:18:11.869Z,34.70
2019-04-10T16:20:39.370Z,33.77
2019-04-10T16:23:32.063Z,34.10
2019-04-10T16:25:59.209Z,33.60
2019-04-10T16:28:27.598Z,36.17
2019-04-10T16:30:55.089Z,35.23
2019-04-10T16:33:23.231Z,35.70
2019-04-10T16:35:50.517Z,33.23
2019-04-10T16:38:17.790Z,32.93
2019-04-10T16:40:45.877Z,35.80
2019-04-10T16:43:13.950Z,31.93
2019-04-10T16:45:42.267Z,31.13
2019-04-10T16:48:10.638Z,35.93
2019-04-10T16:50:38.364Z,31.90
2019-04-10T16:53:05.819Z,35.93
2019-04-10T16:55:32.947Z,35.37
2019-04-10T16:58:01.243Z,36.27
2019-04-10T17:00:29.174Z,38.80
2019-04-10T17:02:56.686Z,34.50
2019-04-10T17:05:24.789Z,34.37
2019-04-10T17:07:52.113Z,34.33
2019-04-10T17:10:24.386Z,36.90
2019-04-10T17:12:51.851Z,34.87
2019-04-10T17:15:19.756Z,36.07
2019-04-10T17:17:46.901Z,35.43
2019-04-10T17:20:14.391Z,33.90
2019-04-10T17:22:44.482Z,38.07
2019-04-10T17:25:11.737Z,39.23
2019-04-10T17:27:39.484Z,39.27
2019-04-10T17:30:08.008Z,36.30
2019-04-10T17:32:38.335Z,39.13
2019-04-10T17:35:07.537Z,35.03
2019-04-10T17:37:35.883Z,31.60
2019-04-10T17:40:06.171Z,39.60
2019-04-10T17:42:34.521Z,34.33
2019-04-10T17:45:02.948Z,35.70
2019-04-10T17:47:31.313Z,46.73
2019-04-10T17:49:58.466Z,38.30
2019-04-10T17:52:27.012Z,34.03
2019-04-10T17:54:55.361Z,35.10
2019-04-10T17:57:33.603Z,37.80
2019-04-10T17:59:52.302Z,36.27
2019-04-10T18:02:19.619Z,36.63
2019-04-10T18:04:47.080Z,36.83
2019-04-10T18:07:14.470Z,38.70
2019-04-10T18:09:41.666Z,42.63
2019-04-10T18:12:10.107Z,38.20
2019-04-10T18:14:39.436Z,37.53
2019-04-10T18:17:07.909Z,39.13
2019-04-10T18:19:36.397Z,42.73
2019-04-10T18:22:05.313Z,41.53
2019-04-10T18:24:32.454Z,40.47
2019-04-10T18:27:01.226Z,43.53
2019-04-10T18:29:28.634Z,39.10
2019-04-10T18:31:57.841Z,34.80
2019-04-10T18:34:24.944Z,38.70
2019-04-10T18:36:52.489Z,38.07
2019-04-10T18:39:19.839Z,35.43
2019-04-10T18:41:48.558Z,37.37
2019-04-10T18:44:17.210Z,46.80
2019-04-10T18:46:46.755Z,42.53
2019-04-10T18:49:13.993Z,42.63
2019-04-10T18:51:41.080Z,38.10
2019-04-10T18:54:11.239Z,45.23
2019-04-10T18:56:38.726Z,40.77
2019-04-10T18:59:19.262Z,34.67
2019-04-10T19:02:05.945Z,43.53
2019-04-10T19:04:57.039Z,40.10
2019-04-10T19:07:25.106Z,48.00
2019-04-10T19:09:52.565Z,44.63
2019-04-10T19:12:20.842Z,49.60
2019-04-10T19:14:48.657Z,41.93
2019-04-10T19:17:17.046Z,47.70
2019-04-10T19:19:45.358Z,38.47
2019-04-10T19:22:14.453Z,42.23
2019-04-10T19:24:41.714Z,43.10
2019-04-10T19:27:09.613Z,41.03
2019-04-10T19:29:36.719Z,39.10
2019-04-10T19:32:05.812Z,42.90
2019-04-10T19:34:33.812Z,40.13
2019-04-10T19:37:01.094Z,38.30
2019-04-10T19:39:28.282Z,39.93
2019-04-10T19:41:55.667Z,46.20
2019-04-10T19:44:23.197Z,41.53
2019-04-10T19:46:50.515Z,43.60
2019-04-10T19:49:17.844Z,43.87
2019-04-10T19:51:44.898Z,41.13
2019-04-10T19:54:11.951Z,45.00
2019-04-10T19:56:40.400Z,39.47
2019-04-10T19:59:08.384Z,39.87
2019-04-10T20:01:36.089Z,40.57
2019-04-10T20:04:03.986Z,44.27
2019-04-10T20:06:32.197Z,45.63
2019-04-10T20:09:00.072Z,40.57
2019-04-10T20:11:37.549Z,43.27
2019-04-10T20:13:59.971Z,40.33
2019-04-10T20:16:27.003Z,40.97
2019-04-10T20:18:54.211Z,39.47
2019-04-10T20:21:21.282Z,40.13
2019-04-10T20:23:48.427Z,40.17
2019-04-10T20:26:15.385Z,44.07
2019-04-10T20:28:42.500Z,42.73
2019-04-10T20:31:15.267Z,47.00
2019-04-10T20:33:43.069Z,45.80
2019-04-10T20:36:11.027Z,48.27
2019-04-10T20:38:38.773Z,43.27
2019-04-10T20:41:07.195Z,44.00
2019-04-10T20:43:35.226Z,42.97
2019-04-10T20:46:03.847Z,43.93
2019-04-10T20:48:32.809Z,38.27
2019-04-10T20:51:00.621Z,39.77
2019-04-10T20:53:28.254Z,35.70
2019-04-10T20:55:57.733Z,34.30
2019-04-10T20:58:25.362Z,35.07
2019-04-10T21:00:52.430Z,35.47
2019-04-10T21:03:19.733Z,40.97
2019-04-10T21:05:46.694Z,36.20
2019-04-10T21:08:13.772Z,41.77
2019-04-10T21:10:40.985Z,34.63
2019-04-10T21:13:08.561Z,36.40
2019-04-10T21:15:36.046Z,34.90
2019-04-10T21:18:03.183Z,37.83
2019-04-10T21:20:30.130Z,41.67
2019-04-10T21:22:57.676Z,34.97
2019-04-10T21:25:25.349Z,36.80
2019-04-10T21:27:54.675Z,36.43
2019-04-10T21:30:44.542Z,42.23
2019-04-10T21:33:22.643Z,35.13
2019-04-10T21:35:49.785Z,37.63
2019-04-10T21:38:17.249Z,36.37
2019-04-10T21:40:45.304Z,37.20
2019-04-10T21:43:12.762Z,34.47
2019-04-10T21:45:41.211Z,37.80
2019-04-10T21:48:08.595Z,40.53
2019-04-10T21:50:35.717Z,37.53
2019-04-10T21:53:03.898Z,41.27
2019-04-10T21:55:31.189Z,40.37
2019-04-10T21:57:59.496Z,40.57
2019-04-10T22:00:45.159Z,33.17
2019-04-10T22:03:13.417Z,35.57
2019-04-10T22:05:42.358Z,34.17
2019-04-10T22:08:16.783Z,37.00
2019-04-10T22:10:45.627Z,37.07
2019-04-10T22:13:13.489Z,32.70
2019-04-10T22:15:43.006Z,33.83
2019-04-10T22:18:10.029Z,34.60
2019-04-10T22:20:37.065Z,33.90
2019-04-10T22:23:04.245Z,32.70
2019-04-10T22:25:31.892Z,38.77
2019-04-10T22:27:59.188Z,36.43
2019-04-10T22:30:27.189Z,35.50
2019-04-10T22:32:54.284Z,34.67
2019-04-10T22:35:21.651Z,32.20
2019-04-10T22:37:49.003Z,38.17
2019-04-10T22:40:17.265Z,34.43
2019-04-10T22:42:47.866Z,38.33
2019-04-10T22:45:25.786Z,38.33
2019-04-10T22:47:54.256Z,35.30
2019-04-10T22:50:22.366Z,36.67
2019-04-10T22:52:50.703Z,31.70
2019-04-10T22:55:17.984Z,34.07
2019-04-10T22:57:46.327Z,36.30
2019-04-10T23:00:18.326Z,35.80
2019-04-10T23:02:48.493Z,37.57
2019-04-10T23:05:16.275Z,36.80
2019-04-10T23:07:43.246Z,39.50
2019-04-10T23:10:12.872Z,36.07
2019-04-10T23:12:50.330Z,32.77
2019-04-10T23:15:11.322Z,32.60
2019-04-10T23:17:39.059Z,37.77
2019-04-10T23:20:07.165Z,37.23
2019-04-10T23:22:34.270Z,34.43
2019-04-10T23:25:02.684Z,36.13
2019-04-10T23:27:30.153Z,40.63
2019-04-10T23:29:57.173Z,40.33
2019-04-10T23:32:25.215Z,33.07
2019-04-10T23:34:52.717Z,33.57
2019-04-10T23:37:20.506Z,34.43
2019-04-10T23:39:48.251Z,37.57
2019-04-10T23:42:15.323Z,38.33
2019-04-10T23:44:42.923Z,35.17
2019-04-10T23:47:09.954Z,41.03
2019-04-10T23:49:37.374Z,36.50
2019-04-10T23:52:04.565Z,35.77
2019-04-10T23:54:31.493Z,32.57
2019-04-10T23:56:58.562Z,36.30
2019-04-10T23:59:26.618Z,34.63
